sensor_id;sensor_type;location;lat;lon;timestamp;temperature;humidity
59162;DHT22;44942;48.936;8.260;2023-02-26T00:00:05;21.20;47.70
59162;DHT22;44942;48.936;8.260;2023-02-26T00:05:11;21.20;47.80
59162;DHT22;44942;48.936;8.260;2023-02-26T00:10:13;21.20;47.80
59162;DHT22;44942;48.936;8.260;2023-02-26T00:15:16;21.20;47.80
59162;DHT22;44942;48.936;8.260;2023-02-26T00:20:17;21.20;47.80
59162;DHT22;44942;48.936;8.260;2023-02-26T00:25:18;21.10;47.80
59162;DHT22;44942;48.936;8.260;2023-02-26T00:30:19;21.20;47.90
59162;DHT22;44942;48.936;8.260;2023-02-26T00:35:20;21.10;47.90
59162;DHT22;44942;48.936;8.260;2023-02-26T00:40:40;21.10;47.90
59162;DHT22;44942;48.936;8.260;2023-02-26T00:51:09;21.10;47.90
59162;DHT22;44942;48.936;8.260;2023-02-26T00:56:13;21.10;47.90
59162;DHT22;44942;48.936;8.260;2023-02-26T01:01:13;21.10;48.20
59162;DHT22;44942;48.936;8.260;2023-02-26T01:06:16;21.10;48.00
59162;DHT22;44942;48.936;8.260;2023-02-26T01:11:18;21.10;48.10
59162;DHT22;44942;48.936;8.260;2023-02-26T01:16:26;21.10;48.10
59162;DHT22;44942;48.936;8.260;2023-02-26T01:21:36;21.10;48.10
59162;DHT22;44942;48.936;8.260;2023-02-26T01:26:39;21.10;48.10
59162;DHT22;44942;48.936;8.260;2023-02-26T01:37:18;21.00;48.00
59162;DHT22;44942;48.936;8.260;2023-02-26T01:42:22;21.00;47.90
59162;DHT22;44942;48.936;8.260;2023-02-26T01:47:38;21.10;48.00
59162;DHT22;44942;48.936;8.260;2023-02-26T01:57:50;21.00;47.90
59162;DHT22;44942;48.936;8.260;2023-02-26T02:02:51;21.00;47.90
59162;DHT22;44942;48.936;8.260;2023-02-26T02:07:52;21.00;47.90
59162;DHT22;44942;48.936;8.260;2023-02-26T02:34:33;21.00;47.90
59162;DHT22;44942;48.936;8.260;2023-02-26T02:39:41;21.00;47.90
59162;DHT22;44942;48.936;8.260;2023-02-26T02:44:45;21.00;48.00
59162;DHT22;44942;48.936;8.260;2023-02-26T02:49:52;21.00;48.00
59162;DHT22;44942;48.936;8.260;2023-02-26T02:55:04;20.90;47.90
59162;DHT22;44942;48.936;8.260;2023-02-26T03:00:10;20.90;48.00
59162;DHT22;44942;48.936;8.260;2023-02-26T03:05:12;20.90;48.00
59162;DHT22;44942;48.936;8.260;2023-02-26T03:10:14;20.90;48.00
59162;DHT22;44942;48.936;8.260;2023-02-26T03:15:20;20.90;48.00
59162;DHT22;44942;48.936;8.260;2023-02-26T03:20:26;20.90;48.00
59162;DHT22;44942;48.936;8.260;2023-02-26T03:25:47;20.90;48.10
59162;DHT22;44942;48.936;8.260;2023-02-26T03:36:31;20.90;48.00
59162;DHT22;44942;48.936;8.260;2023-02-26T03:41:39;20.90;48.00
59162;DHT22;44942;48.936;8.260;2023-02-26T03:46:45;20.80;48.00
59162;DHT22;44942;48.936;8.260;2023-02-26T03:51:47;20.80;48.00
59162;DHT22;44942;48.936;8.260;2023-02-26T03:56:48;20.80;48.10
59162;DHT22;44942;48.936;8.260;2023-02-26T04:02:01;20.80;48.10
59162;DHT22;44942;48.936;8.260;2023-02-26T04:07:02;20.80;48.10
59162;DHT22;44942;48.936;8.260;2023-02-26T04:12:03;20.80;48.20
59162;DHT22;44942;48.936;8.260;2023-02-26T04:17:04;20.80;48.30
59162;DHT22;44942;48.936;8.260;2023-02-26T04:22:05;20.80;48.30
59162;DHT22;44942;48.936;8.260;2023-02-26T04:27:05;20.80;48.30
59162;DHT22;44942;48.936;8.260;2023-02-26T04:32:06;20.80;48.30
59162;DHT22;44942;48.936;8.260;2023-02-26T04:37:06;20.80;48.30
59162;DHT22;44942;48.936;8.260;2023-02-26T04:42:07;20.80;48.20
59162;DHT22;44942;48.936;8.260;2023-02-26T04:47:08;20.80;48.20
59162;DHT22;44942;48.936;8.260;2023-02-26T04:52:08;20.70;48.20
59162;DHT22;44942;48.936;8.260;2023-02-26T04:57:09;20.70;48.20
59162;DHT22;44942;48.936;8.260;2023-02-26T05:02:09;20.80;48.20
59162;DHT22;44942;48.936;8.260;2023-02-26T05:07:10;20.70;48.20
59162;DHT22;44942;48.936;8.260;2023-02-26T05:12:11;20.70;48.20
59162;DHT22;44942;48.936;8.260;2023-02-26T05:17:12;20.70;48.20
59162;DHT22;44942;48.936;8.260;2023-02-26T05:22:13;20.70;48.20
59162;DHT22;44942;48.936;8.260;2023-02-26T05:27:13;20.70;48.20
59162;DHT22;44942;48.936;8.260;2023-02-26T05:32:14;20.70;48.10
59162;DHT22;44942;48.936;8.260;2023-02-26T05:37:15;20.70;48.20
59162;DHT22;44942;48.936;8.260;2023-02-26T05:42:15;20.70;48.20
59162;DHT22;44942;48.936;8.260;2023-02-26T05:47:16;20.60;48.20
59162;DHT22;44942;48.936;8.260;2023-02-26T05:52:16;20.60;48.20
59162;DHT22;44942;48.936;8.260;2023-02-26T05:57:17;20.60;48.20
59162;DHT22;44942;48.936;8.260;2023-02-26T06:02:18;20.60;48.20
59162;DHT22;44942;48.936;8.260;2023-02-26T06:07:20;20.60;48.20
59162;DHT22;44942;48.936;8.260;2023-02-26T06:12:21;20.60;48.20
59162;DHT22;44942;48.936;8.260;2023-02-26T06:17:22;20.60;48.20
59162;DHT22;44942;48.936;8.260;2023-02-26T06:22:22;20.60;48.20
59162;DHT22;44942;48.936;8.260;2023-02-26T06:27:23;20.60;48.20
59162;DHT22;44942;48.936;8.260;2023-02-26T06:32:24;20.60;48.20
59162;DHT22;44942;48.936;8.260;2023-02-26T06:37:26;20.60;48.20
59162;DHT22;44942;48.936;8.260;2023-02-26T06:42:26;20.60;48.20
59162;DHT22;44942;48.936;8.260;2023-02-26T06:47:27;20.60;48.20
59162;DHT22;44942;48.936;8.260;2023-02-26T06:52:28;20.50;48.20
59162;DHT22;44942;48.936;8.260;2023-02-26T06:57:28;20.50;48.20
59162;DHT22;44942;48.936;8.260;2023-02-26T07:02:29;20.60;48.30
59162;DHT22;44942;48.936;8.260;2023-02-26T07:07:30;20.50;48.20
59162;DHT22;44942;48.936;8.260;2023-02-26T07:12:30;20.60;48.90
59162;DHT22;44942;48.936;8.260;2023-02-26T07:17:31;20.50;48.20
59162;DHT22;44942;48.936;8.260;2023-02-26T07:22:32;20.00;44.70
59162;DHT22;44942;48.936;8.260;2023-02-26T07:27:33;17.80;39.00
59162;DHT22;44942;48.936;8.260;2023-02-26T07:32:34;17.80;40.50
59162;DHT22;44942;48.936;8.260;2023-02-26T07:37:35;18.40;41.10
59162;DHT22;44942;48.936;8.260;2023-02-26T07:42:36;18.70;41.20
59162;DHT22;44942;48.936;8.260;2023-02-26T07:47:36;19.00;41.50
59162;DHT22;44942;48.936;8.260;2023-02-26T07:52:37;19.20;41.80
59162;DHT22;44942;48.936;8.260;2023-02-26T07:57:37;19.30;42.10
59162;DHT22;44942;48.936;8.260;2023-02-26T08:02:38;19.40;42.40
59162;DHT22;44942;48.936;8.260;2023-02-26T08:07:39;19.50;42.70
59162;DHT22;44942;48.936;8.260;2023-02-26T08:12:40;19.50;43.00
59162;DHT22;44942;48.936;8.260;2023-02-26T08:17:40;19.50;43.20
59162;DHT22;44942;48.936;8.260;2023-02-26T08:22:41;19.60;43.30
59162;DHT22;44942;48.936;8.260;2023-02-26T08:27:41;19.70;43.40
59162;DHT22;44942;48.936;8.260;2023-02-26T08:32:42;19.70;43.60
59162;DHT22;44942;48.936;8.260;2023-02-26T08:37:43;19.70;43.70
59162;DHT22;44942;48.936;8.260;2023-02-26T08:42:43;19.80;43.80
59162;DHT22;44942;48.936;8.260;2023-02-26T08:47:44;19.80;43.90
59162;DHT22;44942;48.936;8.260;2023-02-26T08:52:45;19.90;44.00
59162;DHT22;44942;48.936;8.260;2023-02-26T08:57:45;19.90;44.20
59162;DHT22;44942;48.936;8.260;2023-02-26T09:02:46;19.90;44.20
59162;DHT22;44942;48.936;8.260;2023-02-26T09:07:46;20.00;44.40
59162;DHT22;44942;48.936;8.260;2023-02-26T09:12:47;20.00;44.50
59162;DHT22;44942;48.936;8.260;2023-02-26T09:17:48;20.10;44.60
59162;DHT22;44942;48.936;8.260;2023-02-26T09:22:50;20.10;44.70
59162;DHT22;44942;48.936;8.260;2023-02-26T09:27:51;20.10;44.80
59162;DHT22;44942;48.936;8.260;2023-02-26T09:32:52;20.10;44.90
59162;DHT22;44942;48.936;8.260;2023-02-26T09:37:52;20.10;45.00
59162;DHT22;44942;48.936;8.260;2023-02-26T09:47:54;20.20;45.10
59162;DHT22;44942;48.936;8.260;2023-02-26T09:53:19;20.20;45.10
59162;DHT22;44942;48.936;8.260;2023-02-26T09:58:33;20.20;45.10
59162;DHT22;44942;48.936;8.260;2023-02-26T10:09:03;20.30;45.20
59162;DHT22;44942;48.936;8.260;2023-02-26T10:14:13;20.30;45.20
59162;DHT22;44942;48.936;8.260;2023-02-26T10:19:18;20.30;45.20
59162;DHT22;44942;48.936;8.260;2023-02-26T10:24:36;20.30;45.30
59162;DHT22;44942;48.936;8.260;2023-02-26T10:39:56;20.30;45.40
59162;DHT22;44942;48.936;8.260;2023-02-26T10:50:22;20.40;45.50
59162;DHT22;44942;48.936;8.260;2023-02-26T11:00:24;20.40;45.50
59162;DHT22;44942;48.936;8.260;2023-02-26T11:05:27;20.40;45.50
59162;DHT22;44942;48.936;8.260;2023-02-26T11:15:56;20.40;45.60
59162;DHT22;44942;48.936;8.260;2023-02-26T11:20:59;20.40;45.60
59162;DHT22;44942;48.936;8.260;2023-02-26T11:26:05;20.40;45.70
59162;DHT22;44942;48.936;8.260;2023-02-26T11:31:08;20.50;45.80
59162;DHT22;44942;48.936;8.260;2023-02-26T11:36:19;20.50;45.80
59162;DHT22;44942;48.936;8.260;2023-02-26T11:41:22;20.40;45.70
59162;DHT22;44942;48.936;8.260;2023-02-26T11:46:24;20.50;45.80
59162;DHT22;44942;48.936;8.260;2023-02-26T11:51:27;20.50;45.80
59162;DHT22;44942;48.936;8.260;2023-02-26T11:56:34;20.50;45.80
59162;DHT22;44942;48.936;8.260;2023-02-26T12:01:36;20.50;45.90
59162;DHT22;44942;48.936;8.260;2023-02-26T12:06:37;20.50;46.00
59162;DHT22;44942;48.936;8.260;2023-02-26T12:27:54;20.50;46.20
59162;DHT22;44942;48.936;8.260;2023-02-26T12:38:44;20.50;46.50
59162;DHT22;44942;48.936;8.260;2023-02-26T12:43:48;20.50;46.50
59162;DHT22;44942;48.936;8.260;2023-02-26T12:49:18;20.50;46.50
59162;DHT22;44942;48.936;8.260;2023-02-26T13:15:48;20.60;46.70
59162;DHT22;44942;48.936;8.260;2023-02-26T13:21:06;20.60;46.70
59162;DHT22;44942;48.936;8.260;2023-02-26T13:26:09;20.60;46.70
59162;DHT22;44942;48.936;8.260;2023-02-26T13:31:24;20.60;46.80
59162;DHT22;44942;48.936;8.260;2023-02-26T13:36:27;20.70;47.00
59162;DHT22;44942;48.936;8.260;2023-02-26T13:41:37;20.70;47.10
59162;DHT22;44942;48.936;8.260;2023-02-26T13:51:56;20.70;47.40
59162;DHT22;44942;48.936;8.260;2023-02-26T14:02:42;20.70;47.30
59162;DHT22;44942;48.936;8.260;2023-02-26T14:07:52;20.70;47.20
59162;DHT22;44942;48.936;8.260;2023-02-26T14:13:23;20.70;47.20
59162;DHT22;44942;48.936;8.260;2023-02-26T14:18:35;20.70;47.10
59162;DHT22;44942;48.936;8.260;2023-02-26T14:23:36;20.70;47.10
59162;DHT22;44942;48.936;8.260;2023-02-26T14:34:13;20.60;47.20
59162;DHT22;44942;48.936;8.260;2023-02-26T14:39:38;20.60;47.20
59162;DHT22;44942;48.936;8.260;2023-02-26T14:44:43;20.70;47.20
59162;DHT22;44942;48.936;8.260;2023-02-26T14:49:45;20.70;47.20
59162;DHT22;44942;48.936;8.260;2023-02-26T15:06:24;20.70;47.40
59162;DHT22;44942;48.936;8.260;2023-02-26T15:16:58;20.70;47.50
59162;DHT22;44942;48.936;8.260;2023-02-26T15:27:22;20.70;47.60
59162;DHT22;44942;48.936;8.260;2023-02-26T15:32:23;20.70;47.50
59162;DHT22;44942;48.936;8.260;2023-02-26T15:37:27;20.70;47.60
59162;DHT22;44942;48.936;8.260;2023-02-26T15:42:30;20.70;47.60
59162;DHT22;44942;48.936;8.260;2023-02-26T15:47:33;20.70;47.50
59162;DHT22;44942;48.936;8.260;2023-02-26T15:52:34;20.70;47.50
59162;DHT22;44942;48.936;8.260;2023-02-26T15:57:35;20.80;47.60
59162;DHT22;44942;48.936;8.260;2023-02-26T16:02:36;20.80;47.60
59162;DHT22;44942;48.936;8.260;2023-02-26T16:07:38;20.80;47.60
59162;DHT22;44942;48.936;8.260;2023-02-26T16:12:41;20.80;47.60
59162;DHT22;44942;48.936;8.260;2023-02-26T16:17:44;20.80;47.60
59162;DHT22;44942;48.936;8.260;2023-02-26T16:22:49;20.80;47.50
59162;DHT22;44942;48.936;8.260;2023-02-26T16:27:58;20.80;47.50
59162;DHT22;44942;48.936;8.260;2023-02-26T16:33:01;20.80;47.50
59162;DHT22;44942;48.936;8.260;2023-02-26T16:38:16;20.80;47.50
59162;DHT22;44942;48.936;8.260;2023-02-26T16:43:52;20.80;47.40
59162;DHT22;44942;48.936;8.260;2023-02-26T16:49:19;20.80;48.00
59162;DHT22;44942;48.936;8.260;2023-02-26T16:54:24;20.80;47.30
59162;DHT22;44942;48.936;8.260;2023-02-26T16:59:36;20.80;47.30
59162;DHT22;44942;48.936;8.260;2023-02-26T17:04:38;20.80;47.10
59162;DHT22;44942;48.936;8.260;2023-02-26T17:09:43;20.80;47.10
59162;DHT22;44942;48.936;8.260;2023-02-26T17:14:55;20.80;47.10
59162;DHT22;44942;48.936;8.260;2023-02-26T17:19:56;20.80;47.20
59162;DHT22;44942;48.936;8.260;2023-02-26T17:24:57;20.80;47.10
59162;DHT22;44942;48.936;8.260;2023-02-26T17:29:58;20.80;47.10
59162;DHT22;44942;48.936;8.260;2023-02-26T17:34:59;20.80;47.00
59162;DHT22;44942;48.936;8.260;2023-02-26T17:40:05;20.80;47.00
59162;DHT22;44942;48.936;8.260;2023-02-26T17:45:12;20.80;46.90
59162;DHT22;44942;48.936;8.260;2023-02-26T17:55:25;20.80;46.80
59162;DHT22;44942;48.936;8.260;2023-02-26T18:00:26;20.80;46.80
59162;DHT22;44942;48.936;8.260;2023-02-26T18:05:26;20.80;46.70
59162;DHT22;44942;48.936;8.260;2023-02-26T18:10:28;20.80;46.70
59162;DHT22;44942;48.936;8.260;2023-02-26T18:15:28;20.80;46.60
59162;DHT22;44942;48.936;8.260;2023-02-26T18:20:29;20.80;46.60
59162;DHT22;44942;48.936;8.260;2023-02-26T18:25:30;20.80;46.70
59162;DHT22;44942;48.936;8.260;2023-02-26T18:30:35;20.80;46.60
59162;DHT22;44942;48.936;8.260;2023-02-26T18:35:39;20.80;46.60
59162;DHT22;44942;48.936;8.260;2023-02-26T18:40:46;20.80;46.50
59162;DHT22;44942;48.936;8.260;2023-02-26T18:45:48;20.80;46.40
59162;DHT22;44942;48.936;8.260;2023-02-26T18:50:49;20.80;46.30
59162;DHT22;44942;48.936;8.260;2023-02-26T18:55:50;20.80;46.40
59162;DHT22;44942;48.936;8.260;2023-02-26T19:00:52;20.80;46.30
59162;DHT22;44942;48.936;8.260;2023-02-26T19:05:57;20.80;46.20
59162;DHT22;44942;48.936;8.260;2023-02-26T19:10:58;20.80;46.20
59162;DHT22;44942;48.936;8.260;2023-02-26T19:15:58;20.80;46.20
59162;DHT22;44942;48.936;8.260;2023-02-26T19:20:59;20.70;46.10
59162;DHT22;44942;48.936;8.260;2023-02-26T19:26:01;20.70;46.00
59162;DHT22;44942;48.936;8.260;2023-02-26T19:31:02;20.70;46.00
59162;DHT22;44942;48.936;8.260;2023-02-26T19:36:06;20.80;46.00
59162;DHT22;44942;48.936;8.260;2023-02-26T19:41:06;20.80;46.70
59162;DHT22;44942;48.936;8.260;2023-02-26T19:46:07;20.70;45.90
59162;DHT22;44942;48.936;8.260;2023-02-26T19:51:09;20.70;45.90
59162;DHT22;44942;48.936;8.260;2023-02-26T19:56:09;20.70;45.80
59162;DHT22;44942;48.936;8.260;2023-02-26T20:01:10;20.70;45.80
59162;DHT22;44942;48.936;8.260;2023-02-26T20:06:11;20.70;45.80
59162;DHT22;44942;48.936;8.260;2023-02-26T20:11:12;20.70;45.80
59162;DHT22;44942;48.936;8.260;2023-02-26T20:16:13;20.70;45.80
59162;DHT22;44942;48.936;8.260;2023-02-26T20:21:14;20.70;45.90
59162;DHT22;44942;48.936;8.260;2023-02-26T20:26:15;20.70;45.80
59162;DHT22;44942;48.936;8.260;2023-02-26T20:31:16;20.70;45.80
59162;DHT22;44942;48.936;8.260;2023-02-26T20:36:17;20.70;45.80
59162;DHT22;44942;48.936;8.260;2023-02-26T20:41:18;20.70;45.80
59162;DHT22;44942;48.936;8.260;2023-02-26T20:46:19;20.70;45.80
59162;DHT22;44942;48.936;8.260;2023-02-26T20:51:19;20.70;45.80
59162;DHT22;44942;48.936;8.260;2023-02-26T20:56:20;20.70;45.70
59162;DHT22;44942;48.936;8.260;2023-02-26T21:01:20;20.70;45.70
59162;DHT22;44942;48.936;8.260;2023-02-26T21:06:21;20.70;45.80
59162;DHT22;44942;48.936;8.260;2023-02-26T21:11:23;20.60;45.70
59162;DHT22;44942;48.936;8.260;2023-02-26T21:16:24;20.60;45.60
59162;DHT22;44942;48.936;8.260;2023-02-26T21:21:27;20.60;45.60
59162;DHT22;44942;48.936;8.260;2023-02-26T21:26:27;20.60;45.60
59162;DHT22;44942;48.936;8.260;2023-02-26T21:31:28;20.70;45.70
59162;DHT22;44942;48.936;8.260;2023-02-26T21:36:31;20.70;45.80
59162;DHT22;44942;48.936;8.260;2023-02-26T21:41:31;20.70;45.90
59162;DHT22;44942;48.936;8.260;2023-02-26T21:46:32;20.70;46.00
59162;DHT22;44942;48.936;8.260;2023-02-26T21:51:33;20.70;45.90
59162;DHT22;44942;48.936;8.260;2023-02-26T21:56:35;20.70;46.00
59162;DHT22;44942;48.936;8.260;2023-02-26T22:01:37;20.70;46.00
59162;DHT22;44942;48.936;8.260;2023-02-26T22:06:37;20.70;46.00
59162;DHT22;44942;48.936;8.260;2023-02-26T22:11:38;20.70;45.90
59162;DHT22;44942;48.936;8.260;2023-02-26T22:16:39;20.80;46.00
59162;DHT22;44942;48.936;8.260;2023-02-26T22:21:40;20.80;46.70
59162;DHT22;44942;48.936;8.260;2023-02-26T22:26:40;20.80;46.00
59162;DHT22;44942;48.936;8.260;2023-02-26T22:31:41;20.80;46.10
59162;DHT22;44942;48.936;8.260;2023-02-26T22:36:42;20.90;46.10
59162;DHT22;44942;48.936;8.260;2023-02-26T22:41:43;20.90;46.10
59162;DHT22;44942;48.936;8.260;2023-02-26T22:46:44;20.90;46.10
59162;DHT22;44942;48.936;8.260;2023-02-26T22:51:46;20.90;46.10
59162;DHT22;44942;48.936;8.260;2023-02-26T22:56:47;20.90;46.10
59162;DHT22;44942;48.936;8.260;2023-02-26T23:01:47;20.90;46.10
59162;DHT22;44942;48.936;8.260;2023-02-26T23:06:48;20.90;46.10
59162;DHT22;44942;48.936;8.260;2023-02-26T23:11:49;21.00;46.20
59162;DHT22;44942;48.936;8.260;2023-02-26T23:16:49;21.00;46.20
59162;DHT22;44942;48.936;8.260;2023-02-26T23:21:50;21.00;46.30
59162;DHT22;44942;48.936;8.260;2023-02-26T23:26:50;21.00;46.20
59162;DHT22;44942;48.936;8.260;2023-02-26T23:31:51;21.00;46.30
59162;DHT22;44942;48.936;8.260;2023-02-26T23:36:52;21.00;46.20
59162;DHT22;44942;48.936;8.260;2023-02-26T23:41:55;21.00;46.10
59162;DHT22;44942;48.936;8.260;2023-02-26T23:46:55;21.10;46.20
59162;DHT22;44942;48.936;8.260;2023-02-26T23:51:56;21.10;46.20
59162;DHT22;44942;48.936;8.260;2023-02-26T23:56:57;21.10;46.10
